Brisbane - nearby METAR Reports

YBBN - Brisbane Intl Ar, Australia
Distance from station: NNE 11km
Updated: 23/10/2019 18:00
Partly cloudy
Partly cloudy
 Wind from ENE
Wind: ENE 15 km/h
Temperature: 21°C
Dew Point: 14°C
Humidity: 64%
Barometer: 1022 hPa
Clouds: Partly cloudy
Visibility: 10 km
Cloud details: Partly cloudy 914 m
2019/10/23 08:00 YBBN 230800Z 07008KT 9999 SCT030 21/14 Q1022
YAMB - Amberley, Australia
Distance from station: WSW 42km
Updated: 23/10/2019 18:00
Clear
Clear
 Wind from NE
Wind: NE 24 km/h
Temperature: 22°C
Dew Point: 13°C
Humidity: 57%
Barometer: 1021 hPa
Summary: Clear
Visibility: greater than 10 km
2019/10/23 08:00 YAMB 230800Z 05013KT CAVOK 22/13 Q1021 NOSIG
 
YBCG - Coolangatta Aws, Australia
Distance from station: SSE 102km
Updated: 23/10/2019 18:00
Clear
Clear
 Wind from NE
Wind: NE 13 km/h
Temperature: 21°C
Dew Point: 13°C
Humidity: 60%
Barometer: 1022 hPa
Clouds: Clear
Visibility: 10 km
2019/10/23 08:00 YBCG 230800Z AUTO 05007KT 9999 // NCD 21/13 Q1022

Cumulus logo AWN logo WOW logo PWS logo WU logo AWEKAS logo